Time;durP1;ratioP1;P1;durP2;ratioP2;P2;SDS_P1;SDS_P2;PMS_P1;PMS_P2;Temp;Humidity;BMP_temperature;BMP_pressure;BME280_temperature;BME280_humidity;BME280_pressure;Samples;Min_cycle;Max_cycle;Signal;HPM_P1;HPM_P2
2021/11/09 00:01:10;;;;;;;4.32;2.90;;;11.60;74.40;;;;;;5038042;28;20094;-76
2021/11/09 00:03:45;;;;;;;5.50;3.00;;;11.60;74.50;;;;;;5055625;28;20057;-76
2021/11/09 00:06:26;;;;;;;5.13;3.20;;;11.60;74.50;;;;;;5054916;28;20063;-78
2021/11/09 00:09:07;;;;;;;5.65;3.10;;;11.50;74.40;;;;;;5055380;28;20120;-76
2021/11/09 00:11:33;;;;;;;5.43;3.20;;;11.50;74.40;;;;;;5056392;28;20037;-76
2021/11/09 00:14:00;;;;;;;5.47;3.13;;;11.50;74.40;;;;;;5071239;28;20454;-77
2021/11/09 00:16:26;;;;;;;4.75;3.00;;;11.50;74.40;;;;;;5054505;28;20037;-77
2021/11/09 00:18:52;;;;;;;4.93;3.20;;;11.40;74.40;;;;;;5070878;28;20028;-79
2021/11/09 00:21:19;;;;;;;5.20;3.50;;;11.40;74.40;;;;;;5053930;28;20029;-76
2021/11/09 00:23:46;;;;;;;5.75;3.25;;;11.40;74.40;;;;;;5070922;28;20029;-77
2021/11/09 00:26:14;;;;;;;5.05;3.00;;;11.40;74.40;;;;;;5055734;28;20036;-76
2021/11/09 00:28:40;;;;;;;6.07;3.00;;;11.40;74.40;;;;;;5055609;28;20090;-76
2021/11/09 00:31:05;;;;;;;4.93;3.40;;;11.30;74.30;;;;;;5054236;28;20427;-76
2021/11/09 00:33:32;;;;;;;4.63;2.80;;;11.30;74.40;;;;;;5054436;28;20067;-76
2021/11/09 00:35:57;;;;;;;4.85;2.83;;;11.30;74.40;;;;;;5055843;28;20457;-76
2021/11/09 00:38:23;;;;;;;4.82;3.30;;;11.30;74.40;;;;;;5054516;28;20032;-76
2021/11/09 00:40:49;;;;;;;4.82;2.97;;;11.30;74.40;;;;;;5054276;28;20039;-80
2021/11/09 00:43:18;;;;;;;4.72;2.92;;;11.20;74.40;;;;;;5054510;28;20401;-76
2021/11/09 00:45:44;;;;;;;6.43;3.00;;;11.20;74.30;;;;;;5054224;28;20025;-78
2021/11/09 00:48:11;;;;;;;5.93;3.28;;;11.20;74.40;;;;;;5055507;28;20029;-77
2021/11/09 00:50:38;;;;;;;5.22;3.05;;;11.20;74.40;;;;;;5053901;28;20039;-76
2021/11/09 00:53:07;;;;;;;4.30;2.85;;;11.10;74.30;;;;;;5055231;28;20033;-76
2021/11/09 00:55:33;;;;;;;5.10;3.15;;;11.10;74.40;;;;;;5054205;28;20527;-75
2021/11/09 00:57:59;;;;;;;3.45;2.70;;;11.10;74.30;;;;;;5053680;28;20029;-77
2021/11/09 01:00:27;;;;;;;6.15;3.35;;;11.10;74.40;;;;;;5069988;28;20029;-76
2021/11/09 01:02:55;;;;;;;5.80;3.35;;;11.10;74.40;;;;;;5054407;28;20082;-76
2021/11/09 01:05:24;;;;;;;5.45;2.97;;;11.00;74.40;;;;;;5055046;28;20036;-77
2021/11/09 01:08:02;;;;;;;5.72;3.15;;;11.00;74.30;;;;;;5054818;28;20029;-78
2021/11/09 01:10:32;;;;;;;5.45;3.30;;;11.00;74.30;;;;;;5053663;28;20036;-76
2021/11/09 01:12:58;;;;;;;4.78;3.00;;;11.00;74.40;;;;;;5054422;28;20029;-77
2021/11/09 01:15:25;;;;;;;5.40;3.15;;;11.00;74.30;;;;;;5053224;28;20060;-76
2021/11/09 01:17:52;;;;;;;4.45;3.30;;;10.90;74.30;;;;;;5036974;28;20033;-76
2021/11/09 01:20:22;;;;;;;4.82;3.17;;;10.90;74.30;;;;;;5053808;28;20028;-77
2021/11/09 01:22:51;;;;;;;5.30;3.20;;;10.90;74.40;;;;;;5070081;28;20516;-76
2021/11/09 01:25:18;;;;;;;5.28;2.83;;;10.90;74.30;;;;;;5053842;28;20033;-76
2021/11/09 01:27:43;;;;;;;5.03;3.22;;;10.80;74.30;;;;;;5053098;28;20120;-79
2021/11/09 01:30:10;;;;;;;4.60;3.25;;;10.80;74.30;;;;;;5053090;28;20604;-77
2021/11/09 01:32:36;;;;;;;4.55;2.95;;;10.80;74.40;;;;;;5053730;28;20059;-76
2021/11/09 01:35:04;;;;;;;3.85;2.90;;;10.80;74.40;;;;;;5053061;28;20060;-76
2021/11/09 01:37:30;;;;;;;4.90;3.17;;;10.70;74.30;;;;;;5036533;28;20033;-76
2021/11/09 01:39:56;;;;;;;5.05;3.13;;;10.70;74.30;;;;;;5053028;28;20029;-78
2021/11/09 01:42:22;;;;;;;4.93;3.10;;;10.70;74.30;;;;;;5053257;28;20044;-77
2021/11/09 01:44:48;;;;;;;4.28;3.08;;;10.70;74.40;;;;;;5053012;28;20029;-76
2021/11/09 01:47:15;;;;;;;5.82;3.28;;;10.60;74.30;;;;;;5053249;28;20033;-77
2021/11/09 01:49:41;;;;;;;4.75;2.97;;;10.60;74.30;;;;;;5052279;28;20047;-76
2021/11/09 01:52:08;;;;;;;4.88;3.13;;;10.60;74.40;;;;;;5052954;28;20543;-76
2021/11/09 01:54:34;;;;;;;3.83;2.83;;;10.60;74.40;;;;;;5052553;28;20033;-77
2021/11/09 01:57:00;;;;;;;4.25;2.88;;;10.50;74.30;;;;;;5053452;28;20091;-78
2021/11/09 01:59:30;;;;;;;4.20;2.97;;;10.60;74.40;;;;;;5052741;28;20453;-78
2021/11/09 02:01:56;;;;;;;4.63;3.08;;;10.50;74.30;;;;;;5053692;28;20033;-76
2021/11/09 02:04:22;;;;;;;5.53;2.85;;;10.50;75.00;;;;;;5052652;28;20357;-76
2021/11/09 02:06:48;;;;;;;5.68;2.92;;;10.50;74.40;;;;;;5069155;28;20028;-76
2021/11/09 02:09:16;;;;;;;5.15;3.22;;;10.50;74.40;;;;;;5052698;28;20119;-76
2021/11/09 02:11:42;;;;;;;4.20;2.80;;;10.40;74.40;;;;;;5054081;28;20442;-76
2021/11/09 02:14:09;;;;;;;5.22;3.30;;;10.40;74.40;;;;;;5052810;28;20100;-76
2021/11/09 02:16:36;;;;;;;5.93;3.10;;;10.40;74.40;;;;;;5054378;28;20033;-76
2021/11/09 02:19:04;;;;;;;5.15;2.80;;;10.30;74.40;;;;;;5068890;28;20029;-77
2021/11/09 02:21:30;;;;;;;5.07;3.33;;;10.40;74.40;;;;;;5053964;28;20061;-77
2021/11/09 02:23:57;;;;;;;4.13;3.00;;;10.30;74.30;;;;;;5052660;28;20025;-77
2021/11/09 02:26:23;;;;;;;5.22;3.00;;;10.30;74.40;;;;;;5068755;28;20449;-77
2021/11/09 02:28:53;;;;;;;7.00;3.20;;;10.30;74.40;;;;;;5052604;28;20083;-75
2021/11/09 02:31:19;;;;;;;4.05;2.88;;;10.20;74.40;;;;;;5052047;28;20033;-76
2021/11/09 02:33:45;;;;;;;4.40;3.13;;;10.20;74.40;;;;;;5036126;28;20029;-76
2021/11/09 02:36:11;;;;;;;4.90;3.25;;;10.20;74.40;;;;;;5052277;28;20032;-76
2021/11/09 02:38:38;;;;;;;4.28;2.97;;;10.20;74.40;;;;;;5036155;28;20029;-77
2021/11/09 02:41:04;;;;;;;4.38;3.13;;;10.20;74.40;;;;;;5053589;28;20065;-76
2021/11/09 02:43:31;;;;;;;6.53;3.60;;;10.10;74.40;;;;;;5052419;28;20037;-76
2021/11/09 02:52:03;;;;;;;4.28;2.65;;;10.10;74.40;;;;;;5056300;28;20544;-76
2021/11/09 02:54:38;;;;;;;4.45;2.90;;;10.10;74.40;;;;;;5056151;28;20440;-76
2021/11/09 02:57:09;;;;;;;4.47;2.95;;;10.00;74.40;;;;;;5056105;28;20029;-76
2021/11/09 03:02:44;;;;;;;4.28;2.92;;;10.00;74.50;;;;;;5018568;28;20116;-76
2021/11/09 03:05:31;;;;;;;4.15;3.00;;;9.90;74.40;;;;;;5023399;28;20130;-76
2021/11/09 03:08:03;;;;;;;4.63;2.97;;;10.00;74.60;;;;;;5042725;28;20033;-77
2021/11/09 03:10:37;;;;;;;4.85;2.67;;;9.90;74.50;;;;;;5056813;28;20036;-77
2021/11/09 03:13:04;;;;;;;4.60;2.95;;;9.90;74.50;;;;;;5056597;28;20047;-77
2021/11/09 03:15:32;;;;;;;4.95;3.10;;;9.90;74.50;;;;;;5040121;28;20033;-76
2021/11/09 03:44:48;;;;;;;5.15;3.50;;;9.70;74.60;;;;;;5058596;28;20033;-76
2021/11/09 03:47:17;;;;;;;3.85;3.00;;;9.60;74.50;;;;;;5056568;28;20083;-76
2021/11/09 03:49:44;;;;;;;5.05;3.00;;;9.60;74.60;;;;;;5038687;28;20078;-76
2021/11/09 03:52:17;;;;;;;5.45;3.40;;;9.60;74.60;;;;;;5054869;28;20079;-77
2021/11/09 03:54:45;;;;;;;5.18;3.40;;;9.60;74.60;;;;;;5055109;28;20029;-76
2021/11/09 03:57:27;;;;;;;4.65;3.10;;;9.60;74.70;;;;;;5055984;28;20021;-77
2021/11/09 04:00:13;;;;;;;6.22;3.72;;;9.60;74.70;;;;;;5054872;28;20033;-76
2021/11/09 04:02:54;;;;;;;5.28;3.22;;;9.50;74.50;;;;;;5055694;28;20125;-76
2021/11/09 04:05:22;;;;;;;4.63;3.20;;;9.50;74.60;;;;;;5055001;28;20080;-77
2021/11/09 04:10:33;;;;;;;5.47;3.40;;;9.50;74.60;;;;;;5055995;28;20061;-76
2021/11/09 04:13:19;;;;;;;4.35;3.35;;;9.50;74.60;;;;;;5058149;28;20033;-76
2021/11/09 04:15:55;;;;;;;4.90;3.50;;;9.50;74.60;;;;;;5041257;28;20437;-76
2021/11/09 05:01:11;;;;;;;6.35;3.78;;;9.20;74.80;;;;;;5054726;28;20053;-76
2021/11/09 05:09:46;;;;;;;6.20;3.80;;;9.10;74.60;;;;;;5068359;28;20045;-77
2021/11/09 05:12:12;;;;;;;7.35;3.47;;;9.00;74.70;;;;;;5053733;28;20045;-80
2021/11/09 05:14:38;;;;;;;5.65;3.42;;;9.00;74.80;;;;;;5053769;28;20040;-79
2021/11/09 05:17:04;;;;;;;5.25;3.50;;;9.00;74.80;;;;;;5053584;28;20025;-79
2021/11/09 05:19:30;;;;;;;6.28;3.90;;;9.00;74.80;;;;;;5054783;28;20088;-77
2021/11/09 05:21:56;;;;;;;6.53;4.35;;;9.00;74.80;;;;;;5053551;28;20021;-76
2021/11/09 05:24:22;;;;;;;7.43;3.85;;;9.00;74.80;;;;;;5053001;28;20056;-78
2021/11/09 05:26:48;;;;;;;5.97;3.90;;;9.00;74.80;;;;;;5052818;28;20470;-76
2021/11/09 05:29:15;;;;;;;5.50;3.83;;;9.00;74.80;;;;;;5053844;28;20386;-76
2021/11/09 05:31:41;;;;;;;5.65;3.90;;;9.00;74.80;;;;;;5053030;28;20037;-77
2021/11/09 05:34:09;;;;;;;5.75;4.22;;;9.00;74.80;;;;;;5054812;28;20040;-76
2021/11/09 05:36:40;;;;;;;6.00;3.85;;;9.00;74.80;;;;;;5054197;28;20029;-76
2021/11/09 05:41:38;;;;;;;6.38;4.05;;;8.90;74.70;;;;;;5052939;28;20052;-76
2021/11/09 05:44:06;;;;;;;5.30;4.03;;;8.90;74.70;;;;;;5053956;28;20424;-79
2021/11/09 05:46:33;;;;;;;5.20;3.88;;;8.90;74.80;;;;;;5053220;28;20115;-77
2021/11/09 05:48:59;;;;;;;5.95;4.57;;;8.90;74.80;;;;;;5052813;28;20438;-77
2021/11/09 05:51:25;;;;;;;6.80;4.28;;;8.90;74.80;;;;;;5053702;28;20110;-77
2021/11/09 05:53:51;;;;;;;5.63;4.00;;;8.90;74.80;;;;;;5053163;28;20033;-76
2021/11/09 05:56:17;;;;;;;6.97;4.45;;;8.90;74.80;;;;;;5036217;28;20505;-77
2021/11/09 05:58:42;;;;;;;6.63;4.25;;;8.80;74.80;;;;;;5052628;28;20054;-76
2021/11/09 06:01:09;;;;;;;6.28;4.30;;;8.80;74.80;;;;;;5052443;28;20033;-77
2021/11/09 06:03:35;;;;;;;7.00;4.50;;;8.80;74.80;;;;;;5052931;28;20025;-76
2021/11/09 06:06:01;;;;;;;6.35;4.30;;;8.80;74.80;;;;;;5069520;28;20083;-79
2021/11/09 06:08:27;;;;;;;6.20;4.50;;;8.80;74.80;;;;;;5069017;28;20523;-77
2021/11/09 06:10:53;;;;;;;8.02;4.50;;;8.80;74.90;;;;;;5053353;28;20481;-76
2021/11/09 06:13:19;;;;;;;7.00;4.50;;;8.80;74.80;;;;;;5035845;28;20031;-78
2021/11/09 06:15:44;;;;;;;6.65;4.07;;;8.80;74.80;;;;;;5052974;28;20057;-77
2021/11/09 06:18:10;;;;;;;7.30;4.50;;;8.80;74.80;;;;;;5052528;28;20079;-77
2021/11/09 06:20:36;;;;;;;6.05;4.22;;;8.70;74.80;;;;;;5052869;28;20070;-77
2021/11/09 06:23:02;;;;;;;5.78;4.22;;;8.70;74.80;;;;;;5052510;28;20037;-77
2021/11/09 06:25:28;;;;;;;6.82;4.07;;;8.70;74.80;;;;;;5052495;28;20037;-76
2021/11/09 06:27:54;;;;;;;7.35;4.38;;;8.70;74.80;;;;;;5052052;28;20093;-77
2021/11/09 06:30:21;;;;;;;6.45;3.92;;;8.70;74.80;;;;;;5052603;28;20072;-77
2021/11/09 06:32:47;;;;;;;6.18;4.57;;;8.70;74.80;;;;;;5069112;28;20544;-76
2021/11/09 06:35:14;;;;;;;7.50;4.60;;;8.70;74.80;;;;;;5052862;28;20056;-77
2021/11/09 06:37:39;;;;;;;6.70;4.47;;;8.70;74.90;;;;;;5053266;28;20032;-76
2021/11/09 06:40:08;;;;;;;7.00;4.00;;;8.70;74.90;;;;;;5052605;28;20033;-75
2021/11/09 06:42:34;;;;;;;6.85;4.50;;;8.70;74.90;;;;;;5053141;28;20056;-77
2021/11/09 06:45:00;;;;;;;7.00;4.50;;;8.60;74.80;;;;;;5068947;28;20029;-76
2021/11/09 06:47:26;;;;;;;6.57;4.55;;;8.60;74.90;;;;;;5052413;28;20033;-77
2021/11/09 06:49:52;;;;;;;6.55;4.40;;;8.60;74.90;;;;;;5051922;28;20546;-78
2021/11/09 06:52:18;;;;;;;5.60;3.95;;;8.60;74.80;;;;;;5052143;28;20033;-77
2021/11/09 06:54:44;;;;;;;6.53;4.38;;;8.60;74.90;;;;;;5052176;28;20350;-77
2021/11/09 06:57:11;;;;;;;6.32;4.70;;;8.60;74.90;;;;;;5052032;28;20033;-78
2021/11/09 06:59:37;;;;;;;7.15;4.38;;;8.60;74.90;;;;;;5053141;28;20100;-77
2021/11/09 07:02:03;;;;;;;7.25;4.65;;;8.60;74.90;;;;;;5052189;28;20029;-77
2021/11/09 07:04:29;;;;;;;7.72;4.50;;;8.50;74.90;;;;;;5035492;28;20488;-77
2021/11/09 07:06:56;;;;;;;5.68;3.75;;;8.50;74.90;;;;;;5052156;28;20025;-78
2021/11/09 07:09:22;;;;;;;7.03;4.32;;;8.50;74.90;;;;;;5052207;28;20120;-78
2021/11/09 07:11:48;;;;;;;7.18;4.55;;;8.50;74.90;;;;;;5052986;28;20029;-77
2021/11/09 07:14:15;;;;;;;6.10;4.15;;;8.50;74.90;;;;;;5052356;28;20025;-77
2021/11/09 07:16:44;;;;;;;5.72;3.95;;;8.50;75.00;;;;;;5051937;28;20033;-77
2021/11/09 07:19:10;;;;;;;7.28;4.88;;;8.50;75.00;;;;;;5052306;28;20032;-78
2021/11/09 07:21:36;;;;;;;6.80;4.40;;;8.50;74.90;;;;;;5052184;28;20032;-78
2021/11/09 07:24:05;;;;;;;8.00;4.30;;;8.50;75.00;;;;;;5035455;28;20033;-77
2021/11/09 07:26:30;;;;;;;7.38;4.40;;;8.40;74.90;;;;;;5052878;28;20116;-78
2021/11/09 07:28:57;;;;;;;6.55;4.25;;;8.40;74.90;;;;;;5051674;28;20136;-77
2021/11/09 07:31:29;;;;;;;6.47;4.03;;;8.40;75.00;;;;;;5054566;28;20037;-79
2021/11/09 07:33:55;;;;;;;7.13;4.60;;;8.40;75.00;;;;;;5055309;28;20032;-80
2021/11/09 07:36:22;;;;;;;7.78;4.35;;;8.40;75.00;;;;;;5071794;28;20033;-77
2021/11/09 07:38:48;;;;;;;7.75;4.97;;;8.40;75.00;;;;;;5055359;28;20049;-77
2021/11/09 07:41:14;;;;;;;8.68;4.35;;;8.40;75.00;;;;;;5056618;28;20108;-77
2021/11/09 07:43:40;;;;;;;7.90;4.53;;;8.40;75.00;;;;;;5055579;28;20040;-76
2021/11/09 07:46:06;;;;;;;7.55;4.40;;;8.40;75.00;;;;;;5038374;28;20362;-76
2021/11/09 07:48:33;;;;;;;7.03;4.32;;;8.40;75.10;;;;;;5056298;28;20025;-77
2021/11/09 07:50:59;;;;;;;7.97;4.18;;;8.40;75.70;;;;;;5054940;28;20086;-78
2021/11/09 07:53:29;;;;;;;6.03;4.10;;;8.40;75.70;;;;;;5055072;28;20424;-81
2021/11/09 07:56:12;;;;;;;6.72;4.47;;;8.40;75.10;;;;;;5055240;28;20473;-81
2021/11/09 07:58:47;;;;;;;6.72;4.28;;;8.30;75.10;;;;;;5055449;28;20035;-78
2021/11/09 08:01:17;;;;;;;5.97;4.10;;;8.40;75.10;;;;;;5055702;28;20119;-79
2021/11/09 08:04:03;;;;;;;7.72;4.43;;;8.30;75.10;;;;;;5072457;28;20067;-78
2021/11/09 08:06:45;;;;;;;7.13;4.20;;;8.30;75.10;;;;;;5071827;28;20040;-79
2021/11/09 08:09:19;;;;;;;6.65;4.25;;;8.30;75.20;;;;;;5055832;28;20086;-79
2021/11/09 08:11:46;;;;;;;8.15;4.90;;;8.30;75.20;;;;;;5071780;28;20037;-78
2021/11/09 08:14:12;;;;;;;6.88;4.13;;;8.30;75.20;;;;;;5055691;28;20071;-78
2021/11/09 08:16:38;;;;;;;5.35;3.85;;;8.30;75.20;;;;;;5056016;28;20031;-79
2021/11/09 08:19:05;;;;;;;7.57;4.60;;;8.30;75.30;;;;;;5054716;28;20037;-79
2021/11/09 08:21:33;;;;;;;6.88;4.50;;;8.30;75.30;;;;;;5055568;28;20037;-80
2021/11/09 08:23:59;;;;;;;7.25;4.32;;;8.30;75.30;;;;;;5055459;28;20511;-78
2021/11/09 08:26:26;;;;;;;7.03;4.28;;;8.30;75.30;;;;;;5054783;28;20029;-78
2021/11/09 08:28:54;;;;;;;7.55;4.32;;;8.30;75.30;;;;;;5054358;28;20057;-78
2021/11/09 08:31:23;;;;;;;6.30;4.10;;;8.30;75.40;;;;;;5055689;28;20041;-79
2021/11/09 08:33:49;;;;;;;6.15;4.30;;;8.30;75.40;;;;;;5055128;28;20406;-77
2021/11/09 08:36:21;;;;;;;6.68;4.47;;;8.30;75.40;;;;;;5054468;28;20108;-79
2021/11/09 08:38:47;;;;;;;7.32;4.65;;;8.30;75.40;;;;;;5054342;28;20381;-79
2021/11/09 08:41:14;;;;;;;6.05;4.32;;;8.40;75.40;;;;;;5055782;28;20029;-79
2021/11/09 08:43:45;;;;;;;6.05;4.03;;;8.40;75.50;;;;;;5070755;28;20029;-78
2021/11/09 08:46:20;;;;;;;6.90;3.92;;;8.40;75.50;;;;;;5055425;28;20363;-78
2021/11/09 08:48:49;;;;;;;6.18;4.18;;;8.30;75.50;;;;;;5070886;28;20026;-79
2021/11/09 08:51:16;;;;;;;5.95;4.22;;;8.40;75.50;;;;;;5055214;28;20033;-79
2021/11/09 08:53:50;;;;;;;6.47;4.47;;;8.40;75.60;;;;;;5054550;28;20025;-79
2021/11/09 09:04:20;;;;;;;6.00;3.78;;;8.40;75.60;;;;;;5053840;28;20028;-78
2021/11/09 09:06:58;;;;;;;6.90;3.95;;;8.40;75.70;;;;;;5054636;28;20039;-79
2021/11/09 09:09:25;;;;;;;5.43;3.75;;;8.40;75.80;;;;;;5054270;28;20075;-79
2021/11/09 09:11:52;;;;;;;5.40;3.85;;;8.50;75.80;;;;;;5054131;28;20033;-79
2021/11/09 09:14:19;;;;;;;6.22;4.00;;;8.50;75.80;;;;;;5037085;28;20465;-79
2021/11/09 09:16:46;;;;;;;5.80;3.90;;;8.50;75.90;;;;;;5053597;28;20090;-79
2021/11/09 09:19:19;;;;;;;4.88;3.67;;;8.60;76.00;;;;;;5053838;28;20028;-79
2021/11/09 09:21:48;;;;;;;6.20;4.03;;;8.50;76.00;;;;;;5054633;28;20025;-79
2021/11/09 09:26:55;;;;;;;5.63;3.95;;;8.60;76.00;;;;;;5069161;28;20495;-79
2021/11/09 09:29:38;;;;;;;6.37;4.33;;;8.60;76.00;;;;;;5069819;28;20040;-79
2021/11/09 09:57:03;;;;;;;5.57;3.80;;;8.90;76.50;;;;;;5053326;28;20044;-80
2021/11/09 09:59:33;;;;;;;5.60;3.78;;;9.00;76.50;;;;;;5070206;28;20029;-79
2021/11/09 10:02:12;;;;;;;6.60;3.63;;;9.00;76.70;;;;;;5052948;28;20060;-79
2021/11/09 10:04:50;;;;;;;5.70;3.75;;;9.00;76.80;;;;;;5053080;28;20520;-80
2021/11/09 10:07:31;;;;;;;6.13;3.90;;;9.10;76.90;;;;;;5053720;28;20036;-78
2021/11/09 10:09:57;;;;;;;5.10;3.55;;;9.10;76.90;;;;;;5053367;28;20028;-79
2021/11/09 10:12:33;;;;;;;5.40;3.85;;;9.10;76.80;;;;;;5052638;28;20075;-79
2021/11/09 10:15:05;;;;;;;7.50;3.90;;;9.20;76.90;;;;;;5054402;28;20500;-79
2021/11/09 10:17:31;;;;;;;5.47;4.15;;;9.20;76.90;;;;;;5053450;28;20025;-79
2021/11/09 10:19:59;;;;;;;5.63;4.00;;;9.20;76.90;;;;;;5036166;28;20033;-80
2021/11/09 10:22:30;;;;;;;5.28;3.65;;;9.30;77.00;;;;;;5052824;28;20040;-79
2021/11/09 10:25:10;;;;;;;7.03;3.80;;;9.30;77.10;;;;;;5053453;28;20025;-79
2021/11/09 10:27:38;;;;;;;5.43;3.72;;;9.30;77.10;;;;;;5053030;28;20068;-80
2021/11/09 10:30:17;;;;;;;5.50;3.85;;;9.30;77.00;;;;;;5069467;28;20086;-79
2021/11/09 10:32:44;;;;;;;6.10;4.13;;;9.40;77.20;;;;;;5053109;28;20080;-80
2021/11/09 10:35:11;;;;;;;5.57;3.88;;;9.40;77.10;;;;;;5052593;28;20037;-80
2021/11/09 10:37:40;;;;;;;5.85;4.15;;;9.40;77.10;;;;;;5052817;28;20048;-79
2021/11/09 10:40:13;;;;;;;5.97;4.18;;;9.40;77.20;;;;;;5053286;28;20071;-80
2021/11/09 10:42:43;;;;;;;6.18;4.60;;;9.50;77.30;;;;;;5052931;28;20029;-80
2021/11/09 10:45:12;;;;;;;5.90;4.15;;;9.50;77.20;;;;;;5053475;28;20090;-78
2021/11/09 10:47:42;;;;;;;6.38;4.07;;;9.50;77.20;;;;;;5052512;28;20029;-80
2021/11/09 10:50:17;;;;;;;6.60;4.40;;;9.50;77.20;;;;;;5052480;28;20404;-79
2021/11/09 10:52:43;;;;;;;5.93;3.88;;;9.50;77.20;;;;;;5052355;28;20033;-80
2021/11/09 10:55:24;;;;;;;6.88;4.13;;;9.60;77.20;;;;;;5052289;28;20056;-79
2021/11/09 11:06:11;;;;;;;6.03;4.03;;;9.70;77.20;;;;;;5055628;28;20052;-80
2021/11/09 11:08:37;;;;;;;6.55;3.80;;;9.70;77.10;;;;;;5057262;28;20450;-79
2021/11/09 11:11:17;;;;;;;5.40;3.55;;;9.70;77.30;;;;;;5056539;28;20138;-80
2021/11/09 11:13:42;;;;;;;5.47;3.67;;;9.70;77.40;;;;;;5056141;28;20432;-80
2021/11/09 11:16:11;;;;;;;6.82;4.03;;;9.80;77.20;;;;;;5055574;28;20144;-79
2021/11/09 11:18:43;;;;;;;5.97;3.92;;;9.80;77.20;;;;;;5057199;28;20033;-79
2021/11/09 11:21:11;;;;;;;8.00;3.60;;;9.80;77.20;;;;;;5056002;28;20056;-79
2021/11/09 11:23:40;;;;;;;6.75;4.32;;;9.80;77.20;;;;;;5057015;28;20052;-79
2021/11/09 11:26:06;;;;;;;6.00;4.28;;;9.80;77.20;;;;;;5056862;28;20025;-79
2021/11/09 11:28:34;;;;;;;7.18;4.50;;;9.90;77.20;;;;;;5055290;28;20061;-78
2021/11/09 11:31:01;;;;;;;8.50;4.30;;;9.90;77.20;;;;;;5055737;28;20037;-80
2021/11/09 11:33:27;;;;;;;7.70;4.60;;;9.90;77.20;;;;;;5072344;28;20424;-79
2021/11/09 11:35:56;;;;;;;7.65;4.30;;;10.00;77.20;;;;;;5056819;28;20036;-78
2021/11/09 11:38:23;;;;;;;8.45;4.00;;;10.00;77.20;;;;;;5055342;28;20017;-78
2021/11/09 11:40:54;;;;;;;7.97;4.70;;;10.00;77.20;;;;;;5055391;28;20029;-79
2021/11/09 11:43:42;;;;;;;8.25;4.60;;;10.00;77.20;;;;;;5055231;28;20036;-79
2021/11/09 11:46:31;;;;;;;7.00;3.90;;;10.00;77.30;;;;;;5056046;28;20419;-79
2021/11/09 11:49:03;;;;;;;7.00;3.85;;;10.10;77.20;;;;;;5054778;28;20036;-79
2021/11/09 11:51:32;;;;;;;9.45;4.38;;;10.10;77.20;;;;;;5054934;28;20028;-79
2021/11/09 11:53:59;;;;;;;7.32;4.13;;;10.10;77.20;;;;;;5055045;28;20033;-79
2021/11/09 11:56:43;;;;;;;6.22;4.07;;;10.20;77.30;;;;;;5055160;28;20064;-79
2021/11/09 11:59:32;;;;;;;6.93;4.05;;;10.20;77.40;;;;;;5055901;28;20440;-79
2021/11/09 12:02:07;;;;;;;6.07;4.07;;;10.20;77.30;;;;;;5045514;28;20048;-79
2021/11/09 12:04:35;;;;;;;6.97;4.25;;;10.20;77.20;;;;;;5055487;28;20060;-79
2021/11/09 12:07:08;;;;;;;5.82;3.80;;;10.30;77.20;;;;;;5056943;28;20025;-78
2021/11/09 12:09:39;;;;;;;5.95;4.00;;;10.30;77.20;;;;;;5056721;28;20029;-79
2021/11/09 12:12:17;;;;;;;5.68;4.07;;;10.30;77.20;;;;;;5071515;28;20040;-80
2021/11/09 12:15:00;;;;;;;6.90;3.97;;;10.30;77.30;;;;;;5055107;28;20032;-80
2021/11/09 12:17:31;;;;;;;8.32;4.45;;;10.40;77.20;;;;;;5055378;28;20082;-78
2021/11/09 12:19:58;;;;;;;5.47;4.03;;;10.40;77.20;;;;;;5055097;28;20036;-80
2021/11/09 12:22:36;;;;;;;6.78;4.05;;;10.50;77.20;;;;;;5055101;28;20422;-79
2021/11/09 12:25:04;;;;;;;5.97;4.05;;;10.50;77.20;;;;;;5054890;28;20029;-80
2021/11/09 12:27:49;;;;;;;6.90;4.50;;;10.50;77.10;;;;;;5054552;28;20068;-81
2021/11/09 12:30:36;;;;;;;6.15;4.15;;;10.60;77.30;;;;;;5056121;28;20033;-80
2021/11/09 12:33:14;;;;;;;6.68;3.70;;;10.60;77.20;;;;;;5054238;28;20076;-80
2021/11/09 12:35:58;;;;;;;5.25;3.67;;;10.60;77.00;;;;;;5071400;28;20040;-78
2021/11/09 12:38:34;;;;;;;6.90;4.35;;;10.70;77.10;;;;;;5055386;28;20056;-79
2021/11/09 12:41:08;;;;;;;5.85;3.72;;;10.70;77.10;;;;;;5054079;28;20124;-79
2021/11/09 12:43:42;;;;;;;5.15;3.63;;;10.80;77.10;;;;;;5054631;28;20037;-78
2021/11/09 12:46:12;;;;;;;6.22;3.70;;;10.80;77.10;;;;;;5054443;28;20033;-79
2021/11/09 12:48:54;;;;;;;5.88;3.60;;;10.90;77.10;;;;;;5054293;28;20123;-79
2021/11/09 12:51:34;;;;;;;5.60;3.70;;;10.90;77.20;;;;;;5054219;28;20039;-79
2021/11/09 12:54:08;;;;;;;5.22;3.80;;;11.00;77.20;;;;;;5054854;28;20044;-79
2021/11/09 12:56:41;;;;;;;7.53;4.10;;;11.00;77.20;;;;;;5070869;28;20480;-79
2021/11/09 12:59:14;;;;;;;6.32;3.92;;;11.10;77.20;;;;;;5053798;28;20029;-79
2021/11/09 13:04:25;;;;;;;7.22;3.72;;;11.20;77.20;;;;;;5055882;28;20370;-79
2021/11/09 13:09:59;;;;;;;8.10;4.47;;;11.30;77.30;;;;;;5053576;28;20476;-79
2021/11/09 13:12:32;;;;;;;5.35;3.63;;;11.40;77.30;;;;;;5054655;28;20287;-79
2021/11/09 13:15:19;;;;;;;6.50;3.95;;;11.40;77.40;;;;;;5055409;28;20031;-80
2021/11/09 13:17:54;;;;;;;6.93;3.80;;;11.40;77.50;;;;;;5055212;28;20049;-78
2021/11/09 13:23:05;;;;;;;6.75;4.10;;;11.50;77.60;;;;;;5054568;28;20040;-81
2021/11/09 13:25:38;;;;;;;5.53;3.78;;;11.60;77.70;;;;;;5053049;28;20029;-79
2021/11/09 13:28:16;;;;;;;7.95;4.63;;;11.60;77.70;;;;;;5053873;28;20488;-79
2021/11/09 13:30:44;;;;;;;7.35;4.07;;;11.70;77.70;;;;;;5069778;28;20500;-79
2021/11/09 13:33:10;;;;;;;7.00;4.03;;;11.80;77.80;;;;;;5053146;28;20039;-79
2021/11/09 13:35:40;;;;;;;6.05;4.05;;;11.80;77.80;;;;;;5054089;28;20029;-79
2021/11/09 13:38:20;;;;;;;6.53;4.30;;;11.80;77.90;;;;;;5054779;28;20025;-80
2021/11/09 13:40:51;;;;;;;6.53;4.03;;;11.90;78.00;;;;;;5054044;28;20051;-79
2021/11/09 13:43:41;;;;;;;5.97;4.03;;;11.90;77.80;;;;;;5053367;28;20083;-78
2021/11/09 13:46:11;;;;;;;6.53;3.90;;;12.00;78.00;;;;;;5053148;28;20071;-79
2021/11/09 13:48:39;;;;;;;6.85;4.22;;;12.00;77.80;;;;;;5053975;28;20467;-79
2021/11/09 13:51:10;;;;;;;6.25;3.58;;;12.10;77.90;;;;;;5069227;28;20036;-79
2021/11/09 13:53:41;;;;;;;6.80;4.22;;;12.20;78.00;;;;;;5069638;28;20025;-79
2021/11/09 13:56:13;;;;;;;7.32;3.95;;;12.20;78.00;;;;;;5069781;28;20029;-79
2021/11/09 13:58:39;;;;;;;5.63;3.78;;;12.20;77.90;;;;;;5053653;28;20057;-79
2021/11/09 14:01:06;;;;;;;6.82;4.22;;;12.30;77.80;;;;;;5069268;28;20023;-77
2021/11/09 14:08:51;;;;;;;8.15;3.95;;;12.50;77.80;;;;;;5052722;28;20033;-79
2021/11/09 14:16:38;;;;;;;8.55;4.43;;;12.60;77.60;;;;;;5052182;28;20044;-80
2021/11/09 14:19:23;;;;;;;6.45;3.97;;;12.60;77.50;;;;;;5052814;28;20029;-79
2021/11/09 14:21:49;;;;;;;6.95;3.70;;;12.70;77.60;;;;;;5052857;28;20025;-78
2021/11/09 14:24:26;;;;;;;6.22;3.95;;;12.70;77.40;;;;;;5052560;28;20461;-78
2021/11/09 14:27:03;;;;;;;6.55;3.92;;;12.70;77.50;;;;;;5053623;28;20086;-78
2021/11/09 14:29:33;;;;;;;6.13;4.18;;;12.80;77.50;;;;;;5052083;28;20104;-79
2021/11/09 14:32:18;;;;;;;6.72;3.70;;;12.80;77.30;;;;;;5052094;28;20140;-79
2021/11/09 14:34:57;;;;;;;6.93;3.70;;;12.80;77.30;;;;;;5052700;28;20462;-79
2021/11/09 14:37:28;;;;;;;6.25;3.67;;;12.90;77.30;;;;;;5052489;28;20480;-79
2021/11/09 14:39:59;;;;;;;6.63;3.60;;;12.90;77.20;;;;;;5055339;28;20032;-80
2021/11/09 14:43:21;;;;;;;6.18;3.55;;;12.90;77.30;;;;;;5056355;28;20083;-79
2021/11/09 14:48:06;;;;;;;5.63;3.20;;;12.90;77.00;;;;;;5057475;28;20013;-79
2021/11/09 14:53:09;;;;;;;6.90;3.53;;;13.00;77.10;;;;;;5056291;28;20025;-79
2021/11/09 14:55:49;;;;;;;6.03;3.85;;;13.00;77.10;;;;;;5056173;28;20029;-79
2021/11/09 14:58:24;;;;;;;6.90;4.00;;;13.00;77.00;;;;;;5056087;28;20029;-80
2021/11/09 15:00:50;;;;;;;5.70;3.45;;;13.00;77.10;;;;;;5056573;28;20082;-79
2021/11/09 15:03:16;;;;;;;7.75;4.00;;;13.00;76.90;;;;;;5055630;28;20032;-79
2021/11/09 15:05:42;;;;;;;5.88;3.33;;;13.10;77.00;;;;;;5072825;28;20029;-79
2021/11/09 15:08:17;;;;;;;5.18;3.25;;;13.10;77.00;;;;;;5055798;28;20500;-80
2021/11/09 15:30:02;;;;;;;5.60;3.03;;;13.10;76.80;;;;;;5055553;28;20086;-78
2021/11/09 15:32:35;;;;;;;6.15;3.40;;;13.20;76.80;;;;;;5055933;28;20045;-79
2021/11/09 15:37:44;;;;;;;5.15;3.20;;;13.20;76.80;;;;;;5056875;28;20116;-80
2021/11/09 15:40:12;;;;;;;5.80;3.15;;;13.20;76.80;;;;;;5072410;28;20514;-78
2021/11/09 15:42:40;;;;;;;5.22;2.85;;;13.20;76.80;;;;;;5055400;28;20481;-79
2021/11/09 15:45:07;;;;;;;4.40;3.00;;;13.20;76.80;;;;;;5055206;28;20060;-80
2021/11/09 15:47:33;;;;;;;4.07;2.63;;;13.20;76.70;;;;;;5055591;28;20040;-79
2021/11/09 15:49:59;;;;;;;5.80;3.22;;;13.20;76.70;;;;;;5055019;28;20029;-78
2021/11/09 15:52:25;;;;;;;5.13;3.00;;;13.30;76.70;;;;;;5054822;28;20029;-80
2021/11/09 15:54:51;;;;;;;6.03;3.10;;;13.30;76.70;;;;;;5055101;28;20465;-79
2021/11/09 15:57:19;;;;;;;5.57;3.25;;;13.20;76.60;;;;;;5056147;28;20031;-79
2021/11/09 15:59:45;;;;;;;5.32;3.10;;;13.20;76.60;;;;;;5054985;28;20025;-79
2021/11/09 16:02:11;;;;;;;5.18;2.97;;;13.20;76.50;;;;;;5054848;28;20513;-79
2021/11/09 16:04:41;;;;;;;4.18;2.72;;;13.20;76.50;;;;;;5055848;28;20480;-80
2021/11/09 16:07:07;;;;;;;4.72;3.00;;;13.30;76.50;;;;;;5055300;28;20040;-79